createdAt,value
2019-06-15T00:00:25.117Z,4.20
2019-06-15T00:02:29.953Z,4.13
2019-06-15T00:04:48.271Z,3.60
2019-06-15T00:06:52.773Z,3.90
2019-06-15T00:08:58.666Z,4.33
2019-06-15T00:11:08.724Z,3.87
2019-06-15T00:13:16.109Z,4.00
2019-06-15T00:15:23.873Z,3.60
2019-06-15T00:17:29.441Z,4.20
2019-06-15T00:19:35.775Z,3.20
2019-06-15T00:21:40.016Z,4.03
2019-06-15T00:23:44.899Z,3.70
2019-06-15T00:25:49.710Z,3.87
2019-06-15T00:27:55.169Z,3.90
2019-06-15T00:30:00.452Z,3.93
2019-06-15T00:32:05.541Z,3.80
2019-06-15T00:34:14.139Z,3.77
2019-06-15T00:36:19.069Z,4.10
2019-06-15T00:38:24.105Z,4.10
2019-06-15T00:40:28.123Z,4.40
2019-06-15T00:42:32.519Z,4.07
2019-06-15T00:44:37.776Z,3.83
2019-06-15T00:46:46.227Z,3.97
2019-06-15T00:48:58.330Z,4.27
2019-06-15T00:51:03.262Z,4.17
2019-06-15T00:53:08.428Z,4.20
2019-06-15T00:55:14.616Z,4.00
2019-06-15T00:57:18.853Z,4.50
2019-06-15T00:59:22.997Z,3.90
2019-06-15T01:01:31.493Z,4.17
2019-06-15T01:03:36.797Z,4.33
2019-06-15T01:05:42.304Z,4.60
2019-06-15T01:07:49.352Z,4.13
2019-06-15T01:10:05.422Z,4.30
2019-06-15T01:12:12.476Z,4.13
2019-06-15T01:14:16.687Z,3.90
2019-06-15T01:16:23.445Z,4.00
2019-06-15T01:18:27.466Z,3.97
2019-06-15T01:20:31.985Z,3.70
2019-06-15T01:22:37.090Z,4.00
2019-06-15T01:24:42.610Z,4.20
2019-06-15T01:26:48.959Z,4.00
2019-06-15T01:28:57.584Z,4.00
2019-06-15T01:31:12.392Z,4.37
2019-06-15T01:33:16.531Z,4.10
2019-06-15T01:35:22.421Z,4.70
2019-06-15T01:37:26.700Z,4.20
2019-06-15T01:39:31.570Z,4.23
2019-06-15T01:41:36.020Z,3.70
2019-06-15T01:43:40.540Z,4.57
2019-06-15T01:45:45.085Z,4.13
2019-06-15T01:47:51.402Z,4.77
2019-06-15T01:50:00.596Z,4.67
2019-06-15T01:52:11.836Z,4.33
2019-06-15T01:54:16.697Z,4.30
2019-06-15T01:56:22.342Z,4.23
2019-06-15T01:58:28.728Z,4.20
2019-06-15T02:00:33.287Z,4.17
2019-06-15T02:02:37.368Z,4.40
2019-06-15T02:04:41.803Z,4.17
2019-06-15T02:06:46.796Z,4.50
2019-06-15T02:08:50.996Z,4.00
2019-06-15T02:10:55.367Z,4.00
2019-06-15T02:13:01.048Z,4.23
2019-06-15T02:15:08.051Z,3.90
2019-06-15T02:17:16.880Z,4.50
2019-06-15T02:19:22.093Z,4.33
2019-06-15T02:21:26.284Z,4.40
2019-06-15T02:23:30.485Z,4.20
2019-06-15T02:25:36.625Z,4.50
2019-06-15T02:27:40.983Z,4.67
2019-06-15T02:29:45.144Z,4.97
2019-06-15T02:31:49.325Z,4.43
2019-06-15T02:33:54.110Z,4.63
2019-06-15T02:35:58.260Z,4.03
2019-06-15T02:38:03.060Z,4.50
2019-06-15T02:40:12.298Z,4.03
2019-06-15T02:42:23.196Z,4.07
2019-06-15T02:44:27.610Z,4.80
2019-06-15T02:46:32.129Z,4.67
2019-06-15T02:48:36.328Z,4.60
2019-06-15T02:50:40.543Z,4.87
2019-06-15T02:52:45.333Z,4.47
2019-06-15T02:54:49.409Z,4.83
2019-06-15T02:56:53.496Z,4.63
2019-06-15T02:58:57.779Z,4.67
2019-06-15T03:01:07.101Z,4.33
2019-06-15T03:03:15.244Z,4.77
2019-06-15T03:05:23.826Z,4.67
2019-06-15T03:07:29.097Z,5.03
2019-06-15T03:09:33.540Z,4.90
2019-06-15T03:11:37.653Z,4.13
2019-06-15T03:13:42.259Z,4.43
2019-06-15T03:15:47.383Z,5.10
2019-06-15T03:17:51.685Z,4.13
2019-06-15T03:19:56.084Z,4.10
2019-06-15T03:22:00.479Z,4.33
2019-06-15T03:24:04.659Z,4.73
2019-06-15T03:26:08.872Z,4.40
2019-06-15T03:28:13.764Z,4.60
2019-06-15T03:30:18.007Z,4.60
2019-06-15T03:32:23.449Z,5.23
2019-06-15T03:34:27.872Z,5.30
2019-06-15T03:36:32.264Z,4.77
2019-06-15T03:38:36.774Z,4.63
2019-06-15T03:40:43.280Z,4.73
2019-06-15T03:42:48.609Z,4.30
2019-06-15T03:44:56.291Z,4.73
2019-06-15T03:47:07.481Z,5.20
2019-06-15T03:49:11.840Z,4.57
2019-06-15T03:51:16.007Z,4.50
2019-06-15T03:53:20.423Z,4.80
2019-06-15T03:55:24.653Z,4.83
2019-06-15T03:57:28.798Z,4.90
2019-06-15T03:59:33.135Z,4.40
2019-06-15T04:01:43.770Z,4.70
2019-06-15T04:03:47.831Z,4.77
2019-06-15T04:05:53.147Z,4.90
2019-06-15T04:08:01.270Z,4.60
2019-06-15T04:10:16.027Z,4.30
2019-06-15T04:12:20.669Z,4.67
2019-06-15T04:14:24.975Z,4.73
2019-06-15T04:16:29.903Z,4.97
2019-06-15T04:18:34.289Z,4.50
2019-06-15T04:20:38.347Z,4.70
2019-06-15T04:22:42.489Z,4.93
2019-06-15T04:24:47.032Z,4.40
2019-06-15T04:26:51.438Z,4.40
2019-06-15T04:28:55.872Z,4.77
2019-06-15T04:31:03.731Z,4.53
2019-06-15T04:33:10.642Z,4.93
2019-06-15T04:35:17.901Z,4.57
2019-06-15T04:37:22.082Z,5.00
2019-06-15T04:39:26.924Z,4.63
2019-06-15T04:41:31.176Z,4.83
2019-06-15T04:43:35.642Z,4.70
2019-06-15T04:45:40.286Z,4.43
2019-06-15T04:47:45.263Z,4.87
2019-06-15T04:49:49.489Z,4.83
2019-06-15T04:51:54.284Z,4.90
2019-06-15T04:53:58.835Z,4.63
2019-06-15T04:56:04.820Z,4.80
2019-06-15T04:58:12.965Z,4.50
2019-06-15T05:00:21.832Z,4.60
2019-06-15T05:02:27.369Z,4.50
2019-06-15T05:04:32.101Z,4.97
2019-06-15T05:06:38.765Z,4.80
2019-06-15T05:08:43.419Z,4.97
2019-06-15T05:10:48.108Z,5.00
2019-06-15T05:12:52.331Z,5.23
2019-06-15T05:14:56.888Z,5.37
2019-06-15T05:17:01.873Z,5.00
2019-06-15T05:19:07.061Z,5.07
2019-06-15T05:21:13.546Z,5.07
2019-06-15T05:23:29.965Z,5.03
2019-06-15T05:25:34.267Z,4.70
2019-06-15T05:27:38.860Z,5.17
2019-06-15T05:29:42.993Z,5.13
2019-06-15T05:31:47.641Z,5.10
2019-06-15T05:33:51.914Z,4.70
2019-06-15T05:35:56.272Z,5.30
2019-06-15T05:38:00.541Z,4.97
2019-06-15T05:40:07.250Z,5.17
2019-06-15T05:42:11.678Z,4.67
2019-06-15T05:44:20.335Z,5.47
2019-06-15T05:46:29.250Z,5.30
2019-06-15T05:48:34.248Z,5.90
2019-06-15T05:50:38.864Z,5.53
2019-06-15T05:52:44.593Z,5.43
2019-06-15T05:54:49.339Z,5.83
2019-06-15T05:56:53.442Z,5.30
2019-06-15T05:58:58.225Z,5.33
2019-06-15T06:01:02.718Z,6.37
2019-06-15T06:03:06.984Z,5.37
2019-06-15T06:05:11.281Z,5.47
2019-06-15T06:07:15.960Z,5.40
2019-06-15T06:09:23.155Z,5.43
2019-06-15T06:11:27.590Z,5.60
2019-06-15T06:13:32.057Z,5.50
2019-06-15T06:15:36.309Z,6.03
2019-06-15T06:17:42.293Z,5.60
2019-06-15T06:19:46.530Z,5.73
2019-06-15T06:21:50.655Z,5.70
2019-06-15T06:23:58.720Z,5.73
2019-06-15T06:26:06.586Z,5.77
2019-06-15T06:28:14.186Z,6.03
2019-06-15T06:30:18.976Z,5.60
2019-06-15T06:32:23.638Z,6.17
2019-06-15T06:34:27.829Z,6.30
2019-06-15T06:36:32.287Z,5.70
2019-06-15T06:38:37.264Z,5.83
2019-06-15T06:40:41.392Z,5.53
2019-06-15T06:42:45.810Z,6.10
2019-06-15T06:44:50.905Z,6.00
2019-06-15T06:46:55.715Z,6.17
2019-06-15T06:49:01.761Z,5.37
2019-06-15T06:51:15.735Z,6.33
2019-06-15T06:53:21.183Z,6.00
2019-06-15T06:55:25.860Z,6.00
2019-06-15T06:57:30.906Z,6.07
2019-06-15T06:59:35.110Z,6.30
2019-06-15T07:01:39.489Z,5.70
2019-06-15T07:03:43.927Z,6.50
2019-06-15T07:05:48.559Z,6.20
2019-06-15T07:07:52.956Z,6.77
2019-06-15T07:09:57.326Z,6.47
2019-06-15T07:12:01.369Z,6.43
2019-06-15T07:14:05.908Z,6.10
2019-06-15T07:16:10.732Z,6.13
2019-06-15T07:18:15.205Z,6.10
2019-06-15T07:20:19.758Z,6.90
2019-06-15T07:22:24.563Z,6.73
2019-06-15T07:24:28.755Z,6.30
2019-06-15T07:26:32.949Z,6.50
2019-06-15T07:28:39.003Z,6.27
2019-06-15T07:30:47.086Z,6.73
2019-06-15T07:32:57.944Z,6.40
2019-06-15T07:35:02.882Z,6.43
2019-06-15T07:37:07.042Z,6.77
2019-06-15T07:39:11.584Z,6.17
2019-06-15T07:41:15.754Z,5.80
2019-06-15T07:43:20.321Z,6.43
2019-06-15T07:45:24.900Z,6.40
2019-06-15T07:47:29.327Z,5.90
2019-06-15T07:49:33.835Z,5.93
2019-06-15T07:51:38.007Z,5.63
2019-06-15T07:53:42.428Z,5.83
2019-06-15T07:55:49.017Z,5.57
2019-06-15T07:57:56.608Z,5.40
2019-06-15T08:00:09.494Z,5.47
2019-06-15T08:02:13.614Z,6.00
2019-06-15T08:04:17.995Z,5.80
2019-06-15T08:06:22.161Z,5.77
2019-06-15T08:08:26.738Z,5.97
2019-06-15T08:10:31.738Z,5.50
2019-06-15T08:12:36.563Z,5.50
2019-06-15T08:14:40.654Z,5.30
2019-06-15T08:16:45.315Z,5.43
2019-06-15T08:18:50.365Z,5.00
2019-06-15T08:20:54.968Z,5.50
2019-06-15T08:23:03.226Z,5.27
2019-06-15T08:25:11.882Z,5.53
2019-06-15T08:27:21.748Z,5.20
2019-06-15T08:29:26.309Z,5.20
2019-06-15T08:31:33.841Z,5.30
2019-06-15T08:33:40.277Z,5.80
2019-06-15T08:35:52.569Z,5.40
2019-06-15T08:37:56.750Z,5.60
2019-06-15T08:40:00.912Z,5.57
2019-06-15T08:42:05.273Z,5.67
2019-06-15T08:44:10.733Z,5.37
2019-06-15T08:46:15.016Z,4.40
2019-06-15T08:48:19.218Z,4.73
2019-06-15T08:50:23.585Z,5.30
2019-06-15T08:52:29.545Z,4.87
2019-06-15T08:54:38.893Z,5.30
2019-06-15T08:56:48.199Z,5.00
2019-06-15T08:58:56.982Z,5.03
2019-06-15T09:01:02.151Z,4.77
2019-06-15T09:03:08.490Z,4.90
2019-06-15T09:05:13.019Z,5.27
2019-06-15T09:07:19.405Z,5.23
2019-06-15T09:09:24.671Z,4.93
2019-06-15T09:11:29.886Z,4.87
2019-06-15T09:13:34.914Z,4.50
2019-06-15T09:15:57.148Z,4.70
2019-06-15T09:18:06.231Z,4.97
2019-06-15T09:20:11.204Z,4.63
2019-06-15T09:22:19.471Z,4.60
2019-06-15T09:24:24.029Z,4.40
2019-06-15T09:26:30.955Z,4.23
2019-06-15T09:28:36.079Z,4.80
2019-06-15T09:30:41.304Z,5.10
2019-06-15T09:32:56.154Z,4.93
2019-06-15T09:35:08.601Z,4.03
2019-06-15T09:37:12.754Z,4.40
2019-06-15T09:39:17.020Z,4.50
2019-06-15T09:41:21.408Z,3.80
2019-06-15T09:43:25.996Z,4.47
2019-06-15T09:45:33.037Z,4.13
2019-06-15T09:47:40.200Z,4.33
2019-06-15T09:49:45.667Z,3.70
2019-06-15T09:51:55.240Z,4.20
2019-06-15T09:54:09.920Z,4.40
2019-06-15T09:56:14.559Z,3.83
2019-06-15T09:58:19.398Z,3.87
2019-06-15T10:00:24.203Z,4.30
2019-06-15T10:02:30.780Z,3.97
2019-06-15T10:04:40.263Z,3.40
2019-06-15T10:06:46.379Z,4.17
2019-06-15T10:08:52.181Z,3.67
2019-06-15T10:11:02.790Z,3.80
2019-06-15T10:13:13.992Z,3.63
2019-06-15T10:15:27.216Z,3.63
2019-06-15T10:17:32.333Z,3.47
2019-06-15T10:19:37.643Z,3.73
2019-06-15T10:21:41.970Z,3.70
2019-06-15T10:23:46.696Z,3.70
2019-06-15T10:25:59.417Z,3.53
2019-06-15T10:28:06.830Z,3.20
2019-06-15T10:30:15.860Z,3.50
2019-06-15T10:32:23.547Z,3.60
2019-06-15T10:34:28.374Z,3.70
2019-06-15T10:42:29.697Z,3.30
2019-06-15T10:44:40.992Z,3.87
2019-06-15T10:46:45.589Z,3.43
2019-06-15T10:48:50.406Z,3.10
2019-06-15T10:50:57.385Z,3.00
2019-06-15T10:53:10.196Z,3.40
2019-06-15T10:55:19.690Z,3.53
2019-06-15T10:57:26.582Z,3.80
2019-06-15T10:59:31.801Z,3.50
2019-06-15T11:01:37.992Z,3.13
2019-06-15T11:03:53.139Z,3.50
2019-06-15T11:05:57.293Z,3.17
2019-06-15T11:08:09.121Z,2.80
2019-06-15T11:10:13.283Z,3.20
2019-06-15T11:12:17.782Z,2.97
2019-06-15T11:14:25.618Z,2.70
2019-06-15T11:16:30.294Z,3.10
2019-06-15T11:18:35.576Z,2.80
2019-06-15T11:20:45.824Z,2.97
2019-06-15T11:23:01.262Z,3.20
2019-06-15T11:25:07.326Z,3.40
2019-06-15T11:27:11.977Z,2.87
2019-06-15T11:29:16.311Z,3.30
2019-06-15T11:31:28.092Z,2.90
2019-06-15T11:33:32.519Z,2.60
2019-06-15T11:35:39.670Z,3.20
2019-06-15T11:37:48.394Z,2.83
2019-06-15T11:40:07.705Z,3.00
2019-06-15T11:42:07.791Z,3.20
2019-06-15T11:44:15.737Z,2.63
2019-06-15T11:46:20.969Z,2.70
2019-06-15T11:48:33.695Z,2.67
2019-06-15T11:50:38.674Z,2.87
2019-06-15T11:52:43.975Z,2.60
2019-06-15T11:54:53.099Z,3.47
2019-06-15T11:57:05.174Z,2.90
2019-06-15T11:59:15.228Z,2.83
2019-06-15T12:01:21.744Z,3.00
2019-06-15T12:03:30.325Z,2.70
2019-06-15T12:05:35.250Z,2.80
2019-06-15T12:07:40.441Z,2.97
2019-06-15T12:09:46.670Z,3.03
2019-06-15T12:11:53.299Z,2.50
2019-06-15T12:14:09.573Z,3.70
2019-06-15T12:16:16.294Z,2.50
2019-06-15T12:18:22.400Z,3.30
2019-06-15T12:20:30.542Z,2.60
2019-06-15T12:22:36.817Z,2.20
2019-06-15T12:24:44.306Z,3.07
2019-06-15T12:26:49.651Z,2.80
2019-06-15T12:28:59.191Z,2.47
2019-06-15T12:31:07.573Z,2.70
2019-06-15T12:33:13.697Z,2.30
2019-06-15T12:35:17.925Z,2.90
2019-06-15T12:37:22.822Z,2.50
2019-06-15T12:39:29.514Z,2.40
2019-06-15T12:41:33.763Z,2.40
2019-06-15T12:43:39.496Z,2.33
2019-06-15T12:45:44.701Z,2.20
2019-06-15T12:47:50.343Z,2.30
2019-06-15T12:49:54.939Z,2.43
2019-06-15T12:52:01.209Z,1.83
2019-06-15T12:54:11.184Z,2.27
2019-06-15T12:56:22.712Z,2.10
2019-06-15T12:58:33.674Z,2.73
2019-06-15T13:00:40.355Z,2.27
2019-06-15T13:02:47.271Z,2.10
2019-06-15T13:05:07.772Z,2.10
2019-06-15T13:07:26.877Z,1.90
2019-06-15T13:09:33.805Z,2.30
2019-06-15T13:11:59.526Z,2.03
2019-06-15T13:14:14.403Z,2.27
2019-06-15T13:16:38.301Z,2.13
2019-06-15T13:18:39.171Z,2.07
2019-06-15T13:20:47.935Z,2.33
2019-06-15T13:22:53.792Z,1.70
2019-06-15T13:25:15.129Z,2.10
2019-06-15T13:27:28.454Z,2.10
2019-06-15T13:29:34.003Z,2.00
2019-06-15T13:31:42.791Z,2.10
2019-06-15T13:33:53.068Z,1.93
2019-06-15T13:36:03.908Z,2.00
2019-06-15T13:38:11.582Z,1.80
2019-06-15T13:40:26.360Z,2.00
2019-06-15T13:42:33.691Z,2.00
2019-06-15T13:44:47.014Z,1.70
2019-06-15T13:47:03.484Z,2.00
2019-06-15T13:49:10.720Z,1.87
2019-06-15T13:51:23.581Z,2.00
2019-06-15T13:53:29.299Z,1.73
2019-06-15T13:55:35.302Z,1.73
2019-06-15T13:57:45.688Z,1.80
2019-06-15T13:59:54.163Z,1.63
2019-06-15T14:02:09.699Z,1.83
2019-06-15T14:04:22.021Z,2.00
2019-06-15T14:06:35.423Z,1.63
2019-06-15T14:08:42.425Z,1.50
2019-06-15T14:10:59.975Z,1.83
2019-06-15T14:13:13.896Z,1.87
2019-06-15T14:15:26.683Z,1.50
2019-06-15T14:17:34.974Z,2.03
2019-06-15T14:19:48.690Z,1.70
2019-06-15T14:22:05.095Z,1.83
2019-06-15T14:24:14.885Z,1.80
2019-06-15T14:26:20.715Z,1.87
2019-06-15T14:28:30.768Z,1.70
2019-06-15T14:30:57.295Z,1.90
2019-06-15T14:33:08.996Z,1.67
2019-06-15T14:35:23.732Z,1.63
2019-06-15T14:37:37.615Z,1.60
2019-06-15T14:39:44.760Z,1.70
2019-06-15T14:42:00.858Z,1.60
2019-06-15T14:44:19.821Z,1.47
2019-06-15T14:46:25.870Z,1.73
2019-06-15T14:48:32.877Z,1.50
2019-06-15T14:50:55.090Z,1.53
2019-06-15T14:52:58.841Z,1.63
2019-06-15T14:55:08.057Z,1.47
2019-06-15T14:57:19.358Z,1.60
2019-06-15T14:59:32.622Z,1.70
2019-06-15T15:01:39.167Z,1.53
2019-06-15T15:03:47.415Z,1.60
2019-06-15T15:05:53.490Z,1.13
2019-06-15T15:08:09.855Z,1.07
2019-06-15T15:10:26.640Z,1.53
2019-06-15T15:12:36.853Z,1.40
2019-06-15T15:14:43.833Z,1.40
2019-06-15T15:16:50.904Z,1.47
2019-06-15T15:18:56.733Z,1.30
2019-06-15T15:21:03.913Z,1.20
2019-06-15T15:23:25.188Z,1.37
2019-06-15T15:25:31.893Z,1.63
2019-06-15T15:27:39.319Z,1.40
2019-06-15T15:29:46.355Z,1.50
2019-06-15T15:31:54.038Z,1.20
2019-06-15T15:34:07.700Z,1.10
2019-06-15T15:36:16.880Z,1.70
2019-06-15T15:38:31.984Z,1.50
2019-06-15T15:40:39.022Z,1.50
2019-06-15T15:42:51.263Z,1.30
2019-06-15T15:45:12.888Z,1.50
2019-06-15T15:47:27.419Z,1.50
2019-06-15T15:49:36.647Z,1.40
2019-06-15T15:51:42.874Z,1.50
2019-06-15T15:53:50.703Z,1.40
2019-06-15T15:56:01.892Z,1.40
2019-06-15T15:58:11.760Z,1.40
2019-06-15T16:00:34.106Z,1.60
2019-06-15T16:02:52.295Z,1.23
2019-06-15T16:05:06.223Z,1.50
2019-06-15T16:07:20.956Z,1.70
2019-06-15T16:09:28.702Z,1.37
2019-06-15T16:11:42.698Z,1.40
2019-06-15T16:13:51.078Z,1.40
2019-06-15T16:16:06.987Z,1.10
2019-06-15T16:18:12.130Z,1.57
2019-06-15T16:20:18.866Z,1.50
2019-06-15T16:22:26.380Z,1.50
2019-06-15T16:24:31.335Z,1.60
2019-06-15T16:26:38.700Z,1.37
2019-06-15T16:28:46.727Z,1.60
2019-06-15T16:31:06.645Z,1.30
2019-06-15T16:33:08.103Z,1.50
2019-06-15T16:35:19.415Z,1.20
2019-06-15T16:37:25.997Z,1.50
2019-06-15T16:39:30.373Z,1.50
2019-06-15T16:41:36.550Z,1.40
2019-06-15T16:43:40.973Z,1.40
2019-06-15T16:45:46.696Z,1.03
2019-06-15T16:47:52.448Z,1.47
2019-06-15T16:50:00.462Z,1.47
2019-06-15T16:52:07.724Z,1.47
2019-06-15T16:54:16.616Z,1.30
2019-06-15T16:56:20.991Z,1.20
2019-06-15T16:58:29.436Z,1.67
2019-06-15T17:00:36.167Z,1.20
2019-06-15T17:02:43.880Z,1.30
2019-06-15T17:04:51.977Z,1.40
2019-06-15T17:07:07.316Z,1.10
2019-06-15T17:09:21.844Z,1.37
2019-06-15T17:11:26.497Z,1.47
2019-06-15T17:13:31.504Z,1.80
2019-06-15T17:15:39.597Z,1.20
2019-06-15T17:17:46.078Z,1.40
2019-06-15T17:19:51.262Z,1.70
2019-06-15T17:21:58.153Z,1.70
2019-06-15T17:24:06.748Z,1.77
2019-06-15T17:26:22.285Z,1.30
2019-06-15T17:28:31.077Z,1.40
2019-06-15T17:30:36.877Z,1.50
2019-06-15T17:32:41.706Z,1.73
2019-06-15T17:34:47.786Z,1.67
2019-06-15T17:36:52.530Z,1.40
2019-06-15T17:38:59.914Z,1.40
2019-06-15T17:41:06.576Z,1.30
2019-06-15T17:43:16.167Z,1.40
2019-06-15T17:45:26.831Z,1.20
2019-06-15T17:47:33.202Z,1.23
2019-06-15T17:49:37.610Z,1.67
2019-06-15T17:51:42.558Z,1.60
2019-06-15T17:53:47.561Z,1.40
2019-06-15T17:55:51.927Z,1.43
2019-06-15T17:57:57.788Z,1.40
2019-06-15T18:00:06.835Z,1.43
2019-06-15T18:02:12.046Z,1.20
2019-06-15T18:04:22.111Z,1.60
2019-06-15T18:06:33.032Z,1.27
2019-06-15T18:08:38.066Z,1.37
2019-06-15T18:10:42.926Z,1.27
2019-06-15T18:12:47.411Z,1.40
2019-06-15T18:14:51.630Z,1.50
2019-06-15T18:16:58.287Z,1.20
2019-06-15T18:19:03.758Z,1.57
2019-06-15T18:21:08.048Z,1.60
2019-06-15T18:23:12.976Z,1.30
2019-06-15T18:25:17.404Z,1.53
2019-06-15T18:27:26.434Z,1.40
2019-06-15T18:29:36.807Z,1.43
2019-06-15T18:31:39.413Z,1.73
2019-06-15T18:33:43.964Z,1.47
2019-06-15T18:35:49.634Z,1.10
2019-06-15T18:37:55.844Z,1.27
2019-06-15T18:39:59.660Z,1.50
2019-06-15T18:42:07.866Z,1.20
2019-06-15T18:44:12.308Z,1.30
2019-06-15T18:46:16.731Z,1.57
2019-06-15T18:48:26.238Z,1.60
2019-06-15T18:50:48.988Z,1.60
2019-06-15T18:52:56.349Z,1.57
2019-06-15T18:55:06.496Z,1.53
2019-06-15T18:57:17.380Z,1.43
2019-06-15T18:59:21.158Z,1.67
2019-06-15T19:01:27.085Z,1.50
2019-06-15T19:03:31.947Z,1.43
2019-06-15T19:05:37.510Z,1.60
2019-06-15T19:07:42.205Z,1.40
2019-06-15T19:09:49.564Z,1.80
2019-06-15T19:11:56.671Z,1.57
2019-06-15T19:14:07.168Z,1.70
2019-06-15T19:16:19.498Z,1.60
2019-06-15T19:18:26.013Z,1.50
2019-06-15T19:20:33.667Z,1.80
2019-06-15T19:22:38.773Z,1.40
2019-06-15T19:24:49.964Z,1.60
2019-06-15T19:27:16.896Z,1.37
2019-06-15T19:29:26.858Z,1.40
2019-06-15T19:31:31.493Z,1.40
2019-06-15T19:33:37.605Z,1.73
2019-06-15T19:35:43.091Z,1.80
2019-06-15T19:37:47.448Z,2.00
2019-06-15T19:39:52.733Z,1.90
2019-06-15T19:41:58.143Z,2.00
2019-06-15T19:44:06.007Z,1.57
2019-06-15T19:46:13.731Z,1.73
2019-06-15T19:48:33.370Z,1.93
2019-06-15T19:50:37.933Z,1.80
2019-06-15T19:52:43.137Z,1.93
2019-06-15T19:54:48.189Z,1.93
2019-06-15T19:56:58.843Z,1.90
2019-06-15T19:59:03.879Z,1.80
2019-06-15T20:01:11.806Z,2.10
2019-06-15T20:03:32.609Z,1.70
2019-06-15T20:05:38.523Z,1.60
2019-06-15T20:07:47.222Z,1.73
2019-06-15T20:09:51.582Z,1.70
2019-06-15T20:11:58.829Z,2.10
2019-06-15T20:14:07.441Z,2.00
2019-06-15T20:16:16.598Z,2.00
2019-06-15T20:18:37.368Z,1.90
2019-06-15T20:20:47.034Z,1.90
2019-06-15T20:22:57.299Z,1.83
2019-06-15T20:25:02.884Z,2.10
2019-06-15T20:27:10.271Z,2.10
2019-06-15T20:29:14.306Z,1.80
2019-06-15T20:31:21.077Z,2.00
2019-06-15T20:33:40.281Z,2.10
2019-06-15T20:35:50.229Z,1.93
2019-06-15T20:38:00.183Z,1.83
2019-06-15T20:40:11.819Z,1.80
2019-06-15T20:42:18.826Z,2.03
2019-06-15T20:44:32.119Z,2.07
2019-06-15T20:46:47.221Z,2.07
2019-06-15T20:48:53.035Z,2.00
2019-06-15T20:50:59.335Z,1.90
2019-06-15T20:53:08.733Z,2.10
2019-06-15T20:55:18.524Z,2.33
2019-06-15T20:57:35.121Z,2.37
2019-06-15T20:59:50.232Z,1.90
2019-06-15T21:01:58.601Z,2.10
2019-06-15T21:04:08.541Z,2.37
2019-06-15T21:06:16.709Z,2.20
2019-06-15T21:08:28.074Z,2.03
2019-06-15T21:10:37.400Z,2.27
2019-06-15T21:12:43.733Z,2.47
2019-06-15T21:14:52.696Z,2.50
2019-06-15T21:16:58.719Z,2.20
2019-06-15T21:19:06.344Z,2.50
2019-06-15T21:21:15.820Z,2.43
2019-06-15T21:23:21.124Z,2.43
2019-06-15T21:25:26.569Z,2.50
2019-06-15T21:27:36.821Z,2.57
2019-06-15T21:29:45.208Z,2.77
2019-06-15T21:32:01.856Z,2.57
2019-06-15T21:34:06.991Z,2.63
2019-06-15T21:36:15.693Z,2.60
2019-06-15T21:38:26.375Z,3.00
2019-06-15T21:40:29.860Z,2.80
2019-06-15T21:42:36.406Z,2.90
2019-06-15T21:44:41.912Z,2.47
2019-06-15T21:46:51.081Z,2.70
2019-06-15T21:49:02.754Z,2.77
2019-06-15T21:51:11.443Z,2.73
2019-06-15T21:53:16.179Z,2.90
2019-06-15T21:55:24.019Z,2.97
2019-06-15T21:57:36.283Z,3.00
2019-06-15T21:59:40.875Z,2.90
2019-06-15T22:01:54.618Z,3.00
2019-06-15T22:04:06.616Z,2.90
2019-06-15T22:06:11.873Z,3.13
2019-06-15T22:08:17.128Z,2.70
2019-06-15T22:10:21.535Z,3.10
2019-06-15T22:12:31.185Z,3.60
2019-06-15T22:14:46.939Z,3.10
2019-06-15T22:16:57.226Z,2.70
2019-06-15T22:19:07.164Z,3.30
2019-06-15T22:21:13.285Z,3.20
2019-06-15T22:23:18.914Z,2.90
2019-06-15T22:25:23.449Z,3.10
2019-06-15T22:27:28.340Z,2.90
2019-06-15T22:29:33.356Z,3.67
2019-06-15T22:31:37.489Z,3.23
2019-06-15T22:33:42.043Z,3.60
2019-06-15T22:35:47.452Z,3.73
2019-06-15T22:37:56.233Z,3.40
2019-06-15T22:40:10.013Z,3.40
2019-06-15T22:42:18.809Z,3.40
2019-06-15T22:44:27.795Z,3.13
2019-06-15T22:46:34.798Z,3.53
2019-06-15T22:48:39.038Z,3.40
2019-06-15T23:59:27.864Z,3.97
